sensor_id;sensor_type;location;lat;lon;timestamp;P1;durP1;ratioP1;P2;durP2;ratioP2
84638;SDS011;74869;51.924;5.712;2024-02-26T00:01:25;5.05;;;3.35;;
84638;SDS011;74869;51.924;5.712;2024-02-26T00:03:50;5.65;;;3.33;;
84638;SDS011;74869;51.924;5.712;2024-02-26T00:06:17;5.53;;;4.05;;
84638;SDS011;74869;51.924;5.712;2024-02-26T00:08:43;5.60;;;3.63;;
84638;SDS011;74869;51.924;5.712;2024-02-26T00:11:08;6.00;;;3.80;;
84638;SDS011;74869;51.924;5.712;2024-02-26T00:13:34;3.83;;;3.30;;
84638;SDS011;74869;51.924;5.712;2024-02-26T00:15:59;6.70;;;3.53;;
84638;SDS011;74869;51.924;5.712;2024-02-26T00:18:24;3.95;;;3.40;;
84638;SDS011;74869;51.924;5.712;2024-02-26T00:20:50;3.60;;;3.17;;
84638;SDS011;74869;51.924;5.712;2024-02-26T00:23:15;3.97;;;3.55;;
84638;SDS011;74869;51.924;5.712;2024-02-26T00:25:41;3.83;;;3.13;;
84638;SDS011;74869;51.924;5.712;2024-02-26T00:28:08;5.68;;;3.83;;
84638;SDS011;74869;51.924;5.712;2024-02-26T00:30:33;4.10;;;3.22;;
84638;SDS011;74869;51.924;5.712;2024-02-26T00:32:59;6.23;;;3.33;;
84638;SDS011;74869;51.924;5.712;2024-02-26T00:35:24;4.45;;;3.72;;
84638;SDS011;74869;51.924;5.712;2024-02-26T00:37:50;5.00;;;2.90;;
84638;SDS011;74869;51.924;5.712;2024-02-26T00:40:15;3.63;;;3.20;;
84638;SDS011;74869;51.924;5.712;2024-02-26T00:42:40;4.30;;;3.55;;
84638;SDS011;74869;51.924;5.712;2024-02-26T00:45:10;5.63;;;3.53;;
84638;SDS011;74869;51.924;5.712;2024-02-26T00:47:36;5.68;;;4.00;;
84638;SDS011;74869;51.924;5.712;2024-02-26T00:50:01;5.67;;;3.70;;
84638;SDS011;74869;51.924;5.712;2024-02-26T00:52:27;6.65;;;3.65;;
84638;SDS011;74869;51.924;5.712;2024-02-26T00:54:52;6.38;;;3.92;;
84638;SDS011;74869;51.924;5.712;2024-02-26T00:57:18;3.95;;;3.25;;
84638;SDS011;74869;51.924;5.712;2024-02-26T00:59:43;4.25;;;3.40;;
84638;SDS011;74869;51.924;5.712;2024-02-26T01:02:08;5.10;;;3.83;;
84638;SDS011;74869;51.924;5.712;2024-02-26T01:04:34;5.05;;;3.83;;
84638;SDS011;74869;51.924;5.712;2024-02-26T01:06:59;4.78;;;3.53;;
84638;SDS011;74869;51.924;5.712;2024-02-26T01:09:24;4.82;;;3.60;;
84638;SDS011;74869;51.924;5.712;2024-02-26T01:11:50;6.33;;;4.07;;
84638;SDS011;74869;51.924;5.712;2024-02-26T01:14:15;4.45;;;3.55;;
84638;SDS011;74869;51.924;5.712;2024-02-26T01:16:41;4.15;;;3.58;;
84638;SDS011;74869;51.924;5.712;2024-02-26T01:19:06;4.10;;;3.13;;
84638;SDS011;74869;51.924;5.712;2024-02-26T01:21:31;4.35;;;3.03;;
84638;SDS011;74869;51.924;5.712;2024-02-26T01:23:57;4.10;;;3.13;;
84638;SDS011;74869;51.924;5.712;2024-02-26T01:26:22;3.83;;;3.42;;
84638;SDS011;74869;51.924;5.712;2024-02-26T01:28:48;4.05;;;3.08;;
84638;SDS011;74869;51.924;5.712;2024-02-26T01:31:13;4.50;;;2.92;;
84638;SDS011;74869;51.924;5.712;2024-02-26T01:33:39;4.07;;;3.08;;
84638;SDS011;74869;51.924;5.712;2024-02-26T01:36:04;4.27;;;3.20;;
84638;SDS011;74869;51.924;5.712;2024-02-26T01:38:29;3.72;;;3.15;;
84638;SDS011;74869;51.924;5.712;2024-02-26T01:40:55;4.32;;;2.97;;
84638;SDS011;74869;51.924;5.712;2024-02-26T01:43:20;4.35;;;3.05;;
84638;SDS011;74869;51.924;5.712;2024-02-26T01:45:46;3.90;;;3.22;;
84638;SDS011;74869;51.924;5.712;2024-02-26T01:48:11;5.28;;;3.38;;
84638;SDS011;74869;51.924;5.712;2024-02-26T01:50:37;4.38;;;3.40;;
84638;SDS011;74869;51.924;5.712;2024-02-26T01:53:04;4.85;;;3.10;;
84638;SDS011;74869;51.924;5.712;2024-02-26T01:55:31;4.30;;;3.88;;
84638;SDS011;74869;51.924;5.712;2024-02-26T01:57:57;5.22;;;3.58;;
84638;SDS011;74869;51.924;5.712;2024-02-26T02:00:23;5.15;;;3.47;;
84638;SDS011;74869;51.924;5.712;2024-02-26T02:02:49;5.10;;;3.60;;
84638;SDS011;74869;51.924;5.712;2024-02-26T02:05:16;4.97;;;3.70;;
84638;SDS011;74869;51.924;5.712;2024-02-26T02:07:45;4.35;;;3.38;;
84638;SDS011;74869;51.924;5.712;2024-02-26T02:10:11;4.40;;;3.85;;
84638;SDS011;74869;51.924;5.712;2024-02-26T02:12:37;4.10;;;3.30;;
84638;SDS011;74869;51.924;5.712;2024-02-26T02:15:05;5.18;;;3.10;;
84638;SDS011;74869;51.924;5.712;2024-02-26T02:17:31;4.57;;;3.40;;
84638;SDS011;74869;51.924;5.712;2024-02-26T02:19:56;3.17;;;2.88;;
84638;SDS011;74869;51.924;5.712;2024-02-26T02:22:22;4.28;;;3.13;;
84638;SDS011;74869;51.924;5.712;2024-02-26T02:24:48;5.10;;;3.67;;
84638;SDS011;74869;51.924;5.712;2024-02-26T02:27:14;3.10;;;2.63;;
84638;SDS011;74869;51.924;5.712;2024-02-26T02:29:39;3.95;;;2.95;;
84638;SDS011;74869;51.924;5.712;2024-02-26T02:32:05;4.65;;;3.22;;
84638;SDS011;74869;51.924;5.712;2024-02-26T02:34:31;4.45;;;3.03;;
84638;SDS011;74869;51.924;5.712;2024-02-26T02:36:57;4.60;;;3.05;;
84638;SDS011;74869;51.924;5.712;2024-02-26T02:39:23;10.27;;;3.78;;
84638;SDS011;74869;51.924;5.712;2024-02-26T02:41:48;4.67;;;3.17;;
84638;SDS011;74869;51.924;5.712;2024-02-26T02:44:13;4.72;;;3.40;;
84638;SDS011;74869;51.924;5.712;2024-02-26T02:46:39;5.90;;;3.37;;
84638;SDS011;74869;51.924;5.712;2024-02-26T02:49:08;4.87;;;3.40;;
84638;SDS011;74869;51.924;5.712;2024-02-26T02:51:36;5.18;;;3.40;;
84638;SDS011;74869;51.924;5.712;2024-02-26T02:54:02;4.85;;;2.92;;
84638;SDS011;74869;51.924;5.712;2024-02-26T02:56:27;5.47;;;4.00;;
84638;SDS011;74869;51.924;5.712;2024-02-26T02:58:53;6.78;;;3.80;;
84638;SDS011;74869;51.924;5.712;2024-02-26T03:01:18;4.95;;;3.67;;
84638;SDS011;74869;51.924;5.712;2024-02-26T03:03:43;4.20;;;3.40;;
84638;SDS011;74869;51.924;5.712;2024-02-26T03:06:09;4.82;;;3.13;;
84638;SDS011;74869;51.924;5.712;2024-02-26T03:08:35;4.83;;;3.90;;
84638;SDS011;74869;51.924;5.712;2024-02-26T03:11:03;4.28;;;3.53;;
84638;SDS011;74869;51.924;5.712;2024-02-26T03:13:29;5.25;;;3.20;;
84638;SDS011;74869;51.924;5.712;2024-02-26T03:15:54;4.55;;;3.50;;
84638;SDS011;74869;51.924;5.712;2024-02-26T03:18:19;5.68;;;3.50;;
84638;SDS011;74869;51.924;5.712;2024-02-26T03:20:45;3.88;;;3.20;;
84638;SDS011;74869;51.924;5.712;2024-02-26T03:23:10;4.53;;;3.58;;
84638;SDS011;74869;51.924;5.712;2024-02-26T03:25:38;5.70;;;3.78;;
84638;SDS011;74869;51.924;5.712;2024-02-26T03:28:03;4.30;;;3.40;;
84638;SDS011;74869;51.924;5.712;2024-02-26T03:30:29;5.47;;;3.55;;
84638;SDS011;74869;51.924;5.712;2024-02-26T03:32:54;5.45;;;3.50;;
84638;SDS011;74869;51.924;5.712;2024-02-26T03:35:20;4.80;;;3.45;;
84638;SDS011;74869;51.924;5.712;2024-02-26T03:37:46;4.23;;;3.83;;
84638;SDS011;74869;51.924;5.712;2024-02-26T03:40:12;7.13;;;3.58;;
84638;SDS011;74869;51.924;5.712;2024-02-26T03:42:39;4.60;;;3.72;;
84638;SDS011;74869;51.924;5.712;2024-02-26T03:45:05;5.38;;;3.90;;
84638;SDS011;74869;51.924;5.712;2024-02-26T03:47:31;5.07;;;3.20;;
84638;SDS011;74869;51.924;5.712;2024-02-26T03:49:56;4.30;;;3.08;;
84638;SDS011;74869;51.924;5.712;2024-02-26T03:52:24;4.30;;;3.20;;
84638;SDS011;74869;51.924;5.712;2024-02-26T03:54:49;3.80;;;3.35;;
84638;SDS011;74869;51.924;5.712;2024-02-26T03:57:15;3.90;;;2.97;;
84638;SDS011;74869;51.924;5.712;2024-02-26T03:59:40;3.97;;;2.90;;
84638;SDS011;74869;51.924;5.712;2024-02-26T04:02:05;4.28;;;3.35;;
84638;SDS011;74869;51.924;5.712;2024-02-26T04:04:33;3.88;;;3.00;;
84638;SDS011;74869;51.924;5.712;2024-02-26T04:06:59;4.13;;;3.20;;
84638;SDS011;74869;51.924;5.712;2024-02-26T04:09:24;4.57;;;3.30;;
84638;SDS011;74869;51.924;5.712;2024-02-26T04:11:50;4.33;;;3.43;;
84638;SDS011;74869;51.924;5.712;2024-02-26T04:14:15;4.32;;;3.33;;
84638;SDS011;74869;51.924;5.712;2024-02-26T04:16:40;4.90;;;3.43;;
84638;SDS011;74869;51.924;5.712;2024-02-26T04:19:06;7.15;;;3.90;;
84638;SDS011;74869;51.924;5.712;2024-02-26T04:21:31;5.00;;;3.55;;
84638;SDS011;74869;51.924;5.712;2024-02-26T04:23:57;4.20;;;3.80;;
84638;SDS011;74869;51.924;5.712;2024-02-26T04:26:25;5.32;;;3.88;;
84638;SDS011;74869;51.924;5.712;2024-02-26T04:28:51;4.57;;;3.40;;
84638;SDS011;74869;51.924;5.712;2024-02-26T04:31:17;5.85;;;4.07;;
84638;SDS011;74869;51.924;5.712;2024-02-26T04:33:43;5.68;;;3.70;;
84638;SDS011;74869;51.924;5.712;2024-02-26T04:36:12;4.03;;;3.10;;
84638;SDS011;74869;51.924;5.712;2024-02-26T04:38:40;5.30;;;3.72;;
84638;SDS011;74869;51.924;5.712;2024-02-26T04:41:05;7.20;;;3.90;;
84638;SDS011;74869;51.924;5.712;2024-02-26T04:43:31;6.85;;;5.00;;
84638;SDS011;74869;51.924;5.712;2024-02-26T04:45:56;7.80;;;4.45;;
84638;SDS011;74869;51.924;5.712;2024-02-26T04:48:22;5.95;;;4.53;;
84638;SDS011;74869;51.924;5.712;2024-02-26T04:50:48;5.82;;;4.82;;
84638;SDS011;74869;51.924;5.712;2024-02-26T04:53:13;6.32;;;4.15;;
84638;SDS011;74869;51.924;5.712;2024-02-26T04:55:39;7.30;;;4.38;;
84638;SDS011;74869;51.924;5.712;2024-02-26T04:58:04;6.00;;;4.28;;
84638;SDS011;74869;51.924;5.712;2024-02-26T05:00:29;6.63;;;4.80;;
84638;SDS011;74869;51.924;5.712;2024-02-26T05:02:55;8.00;;;5.00;;
84638;SDS011;74869;51.924;5.712;2024-02-26T05:05:20;5.45;;;4.60;;
84638;SDS011;74869;51.924;5.712;2024-02-26T05:07:45;7.37;;;4.40;;
84638;SDS011;74869;51.924;5.712;2024-02-26T05:10:11;6.40;;;4.53;;
84638;SDS011;74869;51.924;5.712;2024-02-26T05:12:36;6.10;;;5.18;;
84638;SDS011;74869;51.924;5.712;2024-02-26T05:15:02;6.38;;;3.97;;
84638;SDS011;74869;51.924;5.712;2024-02-26T05:17:28;7.28;;;4.63;;
84638;SDS011;74869;51.924;5.712;2024-02-26T05:19:53;7.33;;;4.80;;
84638;SDS011;74869;51.924;5.712;2024-02-26T05:22:19;6.43;;;4.50;;
84638;SDS011;74869;51.924;5.712;2024-02-26T05:24:45;9.43;;;4.82;;
84638;SDS011;74869;51.924;5.712;2024-02-26T05:27:10;10.20;;;5.03;;
84638;SDS011;74869;51.924;5.712;2024-02-26T05:29:37;6.70;;;4.78;;
84638;SDS011;74869;51.924;5.712;2024-02-26T05:32:02;6.57;;;4.85;;
84638;SDS011;74869;51.924;5.712;2024-02-26T05:34:28;8.82;;;4.97;;
84638;SDS011;74869;51.924;5.712;2024-02-26T05:36:55;8.07;;;5.07;;
84638;SDS011;74869;51.924;5.712;2024-02-26T05:39:20;7.53;;;5.07;;
84638;SDS011;74869;51.924;5.712;2024-02-26T05:41:45;8.07;;;5.97;;
84638;SDS011;74869;51.924;5.712;2024-02-26T05:44:11;7.25;;;5.03;;
84638;SDS011;74869;51.924;5.712;2024-02-26T05:46:36;8.20;;;5.05;;
84638;SDS011;74869;51.924;5.712;2024-02-26T05:49:02;8.32;;;5.50;;
84638;SDS011;74869;51.924;5.712;2024-02-26T05:51:27;8.80;;;5.47;;
84638;SDS011;74869;51.924;5.712;2024-02-26T05:53:53;8.50;;;5.20;;
84638;SDS011;74869;51.924;5.712;2024-02-26T05:56:19;6.95;;;4.65;;
84638;SDS011;74869;51.924;5.712;2024-02-26T05:58:45;7.97;;;4.95;;
84638;SDS011;74869;51.924;5.712;2024-02-26T06:01:11;7.93;;;4.78;;
84638;SDS011;74869;51.924;5.712;2024-02-26T06:03:36;8.37;;;5.57;;
84638;SDS011;74869;51.924;5.712;2024-02-26T06:06:01;8.82;;;5.75;;
84638;SDS011;74869;51.924;5.712;2024-02-26T06:08:27;6.90;;;4.57;;
84638;SDS011;74869;51.924;5.712;2024-02-26T06:10:52;8.10;;;5.07;;
84638;SDS011;74869;51.924;5.712;2024-02-26T06:13:18;6.82;;;4.75;;
84638;SDS011;74869;51.924;5.712;2024-02-26T06:15:43;7.37;;;5.50;;
84638;SDS011;74869;51.924;5.712;2024-02-26T06:18:08;7.43;;;4.38;;
84638;SDS011;74869;51.924;5.712;2024-02-26T06:20:34;6.33;;;4.63;;
84638;SDS011;74869;51.924;5.712;2024-02-26T06:22:59;7.32;;;4.88;;
84638;SDS011;74869;51.924;5.712;2024-02-26T06:25:24;6.63;;;4.67;;
84638;SDS011;74869;51.924;5.712;2024-02-26T06:27:50;6.75;;;5.07;;
84638;SDS011;74869;51.924;5.712;2024-02-26T06:30:16;8.40;;;4.97;;
84638;SDS011;74869;51.924;5.712;2024-02-26T06:32:41;6.80;;;6.07;;
84638;SDS011;74869;51.924;5.712;2024-02-26T06:35:07;7.13;;;4.72;;
84638;SDS011;74869;51.924;5.712;2024-02-26T06:37:34;6.03;;;5.00;;
84638;SDS011;74869;51.924;5.712;2024-02-26T06:40:00;6.43;;;4.18;;
84638;SDS011;74869;51.924;5.712;2024-02-26T06:42:25;6.20;;;4.60;;
84638;SDS011;74869;51.924;5.712;2024-02-26T06:44:51;8.02;;;5.68;;
84638;SDS011;74869;51.924;5.712;2024-02-26T06:47:16;7.35;;;5.15;;
84638;SDS011;74869;51.924;5.712;2024-02-26T06:49:42;7.13;;;4.95;;
84638;SDS011;74869;51.924;5.712;2024-02-26T06:52:07;7.28;;;4.47;;
84638;SDS011;74869;51.924;5.712;2024-02-26T06:54:32;6.43;;;4.63;;
84638;SDS011;74869;51.924;5.712;2024-02-26T06:56:58;6.97;;;4.82;;
84638;SDS011;74869;51.924;5.712;2024-02-26T06:59:23;6.97;;;5.25;;
84638;SDS011;74869;51.924;5.712;2024-02-26T07:01:49;8.00;;;5.65;;
84638;SDS011;74869;51.924;5.712;2024-02-26T07:04:14;6.95;;;5.43;;
84638;SDS011;74869;51.924;5.712;2024-02-26T07:06:39;8.82;;;6.15;;
84638;SDS011;74869;51.924;5.712;2024-02-26T07:09:06;7.05;;;5.10;;
84638;SDS011;74869;51.924;5.712;2024-02-26T07:11:31;7.37;;;5.33;;
84638;SDS011;74869;51.924;5.712;2024-02-26T07:13:57;9.52;;;6.75;;
84638;SDS011;74869;51.924;5.712;2024-02-26T07:16:22;8.65;;;6.57;;
84638;SDS011;74869;51.924;5.712;2024-02-26T07:18:47;8.93;;;6.50;;
84638;SDS011;74869;51.924;5.712;2024-02-26T07:21:13;8.77;;;6.07;;
84638;SDS011;74869;51.924;5.712;2024-02-26T07:23:38;9.25;;;5.97;;
84638;SDS011;74869;51.924;5.712;2024-02-26T07:26:03;8.93;;;6.57;;
84638;SDS011;74869;51.924;5.712;2024-02-26T07:28:29;9.70;;;6.25;;
84638;SDS011;74869;51.924;5.712;2024-02-26T07:30:54;16.90;;;8.88;;
84638;SDS011;74869;51.924;5.712;2024-02-26T07:33:20;10.60;;;7.60;;
84638;SDS011;74869;51.924;5.712;2024-02-26T07:35:45;11.10;;;7.93;;
84638;SDS011;74869;51.924;5.712;2024-02-26T07:38:10;13.17;;;8.83;;
84638;SDS011;74869;51.924;5.712;2024-02-26T07:40:37;15.95;;;8.00;;
84638;SDS011;74869;51.924;5.712;2024-02-26T07:43:03;11.17;;;6.57;;
84638;SDS011;74869;51.924;5.712;2024-02-26T07:45:28;10.65;;;7.25;;
84638;SDS011;74869;51.924;5.712;2024-02-26T07:47:54;11.50;;;8.20;;
84638;SDS011;74869;51.924;5.712;2024-02-26T07:50:19;14.63;;;8.75;;
84638;SDS011;74869;51.924;5.712;2024-02-26T07:52:45;13.43;;;7.85;;
84638;SDS011;74869;51.924;5.712;2024-02-26T07:55:10;13.07;;;7.85;;
84638;SDS011;74869;51.924;5.712;2024-02-26T07:57:36;14.13;;;8.55;;
84638;SDS011;74869;51.924;5.712;2024-02-26T08:00:02;12.55;;;8.55;;
84638;SDS011;74869;51.924;5.712;2024-02-26T08:02:28;11.73;;;8.05;;
84638;SDS011;74869;51.924;5.712;2024-02-26T08:04:54;14.95;;;8.95;;
84638;SDS011;74869;51.924;5.712;2024-02-26T08:07:19;14.88;;;9.30;;
84638;SDS011;74869;51.924;5.712;2024-02-26T08:09:46;19.85;;;11.10;;
84638;SDS011;74869;51.924;5.712;2024-02-26T08:12:11;16.58;;;9.18;;
84638;SDS011;74869;51.924;5.712;2024-02-26T08:14:37;14.15;;;8.40;;
84638;SDS011;74869;51.924;5.712;2024-02-26T08:17:02;15.13;;;9.02;;
84638;SDS011;74869;51.924;5.712;2024-02-26T08:19:28;13.95;;;8.00;;
84638;SDS011;74869;51.924;5.712;2024-02-26T08:21:53;17.73;;;9.60;;
84638;SDS011;74869;51.924;5.712;2024-02-26T08:24:19;18.15;;;10.13;;
84638;SDS011;74869;51.924;5.712;2024-02-26T08:26:45;17.07;;;10.17;;
84638;SDS011;74869;51.924;5.712;2024-02-26T08:29:10;17.42;;;10.68;;
84638;SDS011;74869;51.924;5.712;2024-02-26T08:31:35;18.13;;;8.87;;
84638;SDS011;74869;51.924;5.712;2024-02-26T08:34:02;13.63;;;7.90;;
84638;SDS011;74869;51.924;5.712;2024-02-26T08:36:29;14.20;;;7.78;;
84638;SDS011;74869;51.924;5.712;2024-02-26T08:38:55;13.48;;;8.38;;
84638;SDS011;74869;51.924;5.712;2024-02-26T08:41:20;13.83;;;7.70;;
84638;SDS011;74869;51.924;5.712;2024-02-26T08:43:45;17.57;;;8.37;;
84638;SDS011;74869;51.924;5.712;2024-02-26T08:46:12;15.13;;;8.67;;
84638;SDS011;74869;51.924;5.712;2024-02-26T08:48:38;19.08;;;9.00;;
84638;SDS011;74869;51.924;5.712;2024-02-26T08:51:07;19.13;;;9.80;;
84638;SDS011;74869;51.924;5.712;2024-02-26T08:53:34;19.30;;;9.43;;
84638;SDS011;74869;51.924;5.712;2024-02-26T08:56:00;22.15;;;11.30;;
84638;SDS011;74869;51.924;5.712;2024-02-26T08:58:26;19.15;;;10.02;;
84638;SDS011;74869;51.924;5.712;2024-02-26T09:00:52;19.05;;;9.23;;
84638;SDS011;74869;51.924;5.712;2024-02-26T09:03:18;18.00;;;9.65;;
84638;SDS011;74869;51.924;5.712;2024-02-26T09:05:43;17.13;;;9.00;;
84638;SDS011;74869;51.924;5.712;2024-02-26T09:08:08;19.73;;;10.60;;
84638;SDS011;74869;51.924;5.712;2024-02-26T09:10:34;19.47;;;9.60;;
84638;SDS011;74869;51.924;5.712;2024-02-26T09:12:59;21.45;;;10.85;;
84638;SDS011;74869;51.924;5.712;2024-02-26T09:15:24;17.85;;;8.98;;
84638;SDS011;74869;51.924;5.712;2024-02-26T09:17:50;23.38;;;10.85;;
84638;SDS011;74869;51.924;5.712;2024-02-26T09:20:16;21.13;;;10.27;;
84638;SDS011;74869;51.924;5.712;2024-02-26T09:22:45;22.45;;;10.75;;
84638;SDS011;74869;51.924;5.712;2024-02-26T09:25:12;20.80;;;10.15;;
84638;SDS011;74869;51.924;5.712;2024-02-26T09:27:37;23.65;;;9.30;;
84638;SDS011;74869;51.924;5.712;2024-02-26T09:30:03;21.20;;;10.32;;
84638;SDS011;74869;51.924;5.712;2024-02-26T09:32:28;19.75;;;10.65;;
84638;SDS011;74869;51.924;5.712;2024-02-26T09:34:55;22.45;;;10.45;;
84638;SDS011;74869;51.924;5.712;2024-02-26T09:37:20;20.60;;;9.65;;
84638;SDS011;74869;51.924;5.712;2024-02-26T09:39:46;21.77;;;10.93;;
84638;SDS011;74869;51.924;5.712;2024-02-26T09:42:11;22.70;;;10.65;;
84638;SDS011;74869;51.924;5.712;2024-02-26T09:44:39;23.95;;;11.70;;
84638;SDS011;74869;51.924;5.712;2024-02-26T09:47:06;23.27;;;11.73;;
84638;SDS011;74869;51.924;5.712;2024-02-26T09:49:34;20.75;;;10.07;;
84638;SDS011;74869;51.924;5.712;2024-02-26T09:52:01;22.45;;;10.27;;
84638;SDS011;74869;51.924;5.712;2024-02-26T09:54:27;20.00;;;10.40;;
84638;SDS011;74869;51.924;5.712;2024-02-26T09:56:57;16.85;;;8.55;;
84638;SDS011;74869;51.924;5.712;2024-02-26T09:59:25;20.80;;;10.35;;
84638;SDS011;74869;51.924;5.712;2024-02-26T10:01:53;17.40;;;7.97;;
84638;SDS011;74869;51.924;5.712;2024-02-26T10:04:19;19.77;;;9.07;;
84638;SDS011;74869;51.924;5.712;2024-02-26T10:06:45;18.30;;;8.25;;
84638;SDS011;74869;51.924;5.712;2024-02-26T10:09:13;19.50;;;10.70;;
84638;SDS011;74869;51.924;5.712;2024-02-26T10:11:41;19.45;;;10.10;;
84638;SDS011;74869;51.924;5.712;2024-02-26T10:14:08;19.98;;;8.60;;
84638;SDS011;74869;51.924;5.712;2024-02-26T10:16:33;16.23;;;8.98;;
84638;SDS011;74869;51.924;5.712;2024-02-26T10:19:00;17.55;;;10.15;;
84638;SDS011;74869;51.924;5.712;2024-02-26T10:21:25;16.83;;;7.75;;
84638;SDS011;74869;51.924;5.712;2024-02-26T10:23:51;17.08;;;8.65;;
84638;SDS011;74869;51.924;5.712;2024-02-26T10:26:17;15.00;;;8.48;;
84638;SDS011;74869;51.924;5.712;2024-02-26T10:28:43;19.52;;;10.38;;
84638;SDS011;74869;51.924;5.712;2024-02-26T10:31:09;15.20;;;8.20;;
84638;SDS011;74869;51.924;5.712;2024-02-26T10:33:35;16.30;;;9.18;;
84638;SDS011;74869;51.924;5.712;2024-02-26T10:36:05;17.35;;;9.38;;
84638;SDS011;74869;51.924;5.712;2024-02-26T10:38:32;20.45;;;10.55;;
84638;SDS011;74869;51.924;5.712;2024-02-26T10:40:59;19.67;;;8.93;;
84638;SDS011;74869;51.924;5.712;2024-02-26T10:43:27;15.60;;;9.65;;
84638;SDS011;74869;51.924;5.712;2024-02-26T10:45:54;15.40;;;8.02;;
84638;SDS011;74869;51.924;5.712;2024-02-26T10:48:20;15.05;;;8.18;;
84638;SDS011;74869;51.924;5.712;2024-02-26T10:50:46;17.80;;;10.07;;
84638;SDS011;74869;51.924;5.712;2024-02-26T10:53:13;15.38;;;8.95;;
84638;SDS011;74869;51.924;5.712;2024-02-26T10:55:42;17.15;;;9.40;;
84638;SDS011;74869;51.924;5.712;2024-02-26T10:58:13;17.13;;;9.40;;
84638;SDS011;74869;51.924;5.712;2024-02-26T11:00:39;14.88;;;9.65;;
84638;SDS011;74869;51.924;5.712;2024-02-26T11:03:05;18.35;;;9.45;;
84638;SDS011;74869;51.924;5.712;2024-02-26T11:05:33;16.95;;;9.13;;
84638;SDS011;74869;51.924;5.712;2024-02-26T11:08:00;16.38;;;8.20;;
84638;SDS011;74869;51.924;5.712;2024-02-26T11:10:26;16.60;;;9.15;;
84638;SDS011;74869;51.924;5.712;2024-02-26T11:12:55;16.98;;;8.90;;
84638;SDS011;74869;51.924;5.712;2024-02-26T11:15:21;15.43;;;8.40;;
84638;SDS011;74869;51.924;5.712;2024-02-26T11:17:47;15.45;;;9.15;;
84638;SDS011;74869;51.924;5.712;2024-02-26T11:20:13;14.98;;;8.35;;
84638;SDS011;74869;51.924;5.712;2024-02-26T11:22:39;16.27;;;9.30;;
84638;SDS011;74869;51.924;5.712;2024-02-26T11:25:05;17.33;;;9.70;;
84638;SDS011;74869;51.924;5.712;2024-02-26T11:27:34;17.55;;;10.05;;
84638;SDS011;74869;51.924;5.712;2024-02-26T11:30:03;18.80;;;10.40;;
84638;SDS011;74869;51.924;5.712;2024-02-26T11:32:34;14.63;;;8.02;;
84638;SDS011;74869;51.924;5.712;2024-02-26T11:35:00;15.43;;;7.95;;
84638;SDS011;74869;51.924;5.712;2024-02-26T11:37:26;18.15;;;10.27;;
84638;SDS011;74869;51.924;5.712;2024-02-26T11:39:52;17.17;;;9.60;;
84638;SDS011;74869;51.924;5.712;2024-02-26T11:42:18;16.90;;;9.25;;
84638;SDS011;74869;51.924;5.712;2024-02-26T11:44:49;18.25;;;8.85;;
84638;SDS011;74869;51.924;5.712;2024-02-26T11:47:19;15.07;;;8.50;;
84638;SDS011;74869;51.924;5.712;2024-02-26T11:49:45;20.38;;;10.90;;
84638;SDS011;74869;51.924;5.712;2024-02-26T11:52:12;14.93;;;9.50;;
84638;SDS011;74869;51.924;5.712;2024-02-26T11:54:48;16.98;;;9.55;;
84638;SDS011;74869;51.924;5.712;2024-02-26T11:57:22;16.63;;;9.60;;
84638;SDS011;74869;51.924;5.712;2024-02-26T12:00:15;16.15;;;10.50;;
84638;SDS011;74869;51.924;5.712;2024-02-26T12:02:51;18.63;;;9.02;;
84638;SDS011;74869;51.924;5.712;2024-02-26T12:05:23;17.98;;;10.98;;
84638;SDS011;74869;51.924;5.712;2024-02-26T12:07:52;13.43;;;9.50;;
84638;SDS011;74869;51.924;5.712;2024-02-26T12:10:30;17.67;;;10.32;;
84638;SDS011;74869;51.924;5.712;2024-02-26T12:13:02;11.60;;;7.65;;
84638;SDS011;74869;51.924;5.712;2024-02-26T12:15:36;18.15;;;8.88;;
84638;SDS011;74869;51.924;5.712;2024-02-26T12:18:03;14.40;;;7.95;;
84638;SDS011;74869;51.924;5.712;2024-02-26T12:20:30;13.48;;;7.50;;
84638;SDS011;74869;51.924;5.712;2024-02-26T12:22:55;13.55;;;7.72;;
84638;SDS011;74869;51.924;5.712;2024-02-26T12:25:23;14.00;;;7.70;;
84638;SDS011;74869;51.924;5.712;2024-02-26T12:27:50;14.98;;;8.48;;
84638;SDS011;74869;51.924;5.712;2024-02-26T12:30:16;14.50;;;7.60;;
84638;SDS011;74869;51.924;5.712;2024-02-26T12:32:41;13.80;;;7.65;;
84638;SDS011;74869;51.924;5.712;2024-02-26T12:35:07;11.70;;;6.78;;
84638;SDS011;74869;51.924;5.712;2024-02-26T12:37:32;11.80;;;7.07;;
84638;SDS011;74869;51.924;5.712;2024-02-26T12:39:58;13.43;;;6.85;;
84638;SDS011;74869;51.924;5.712;2024-02-26T12:42:23;14.32;;;7.45;;
84638;SDS011;74869;51.924;5.712;2024-02-26T12:44:49;12.32;;;6.88;;
84638;SDS011;74869;51.924;5.712;2024-02-26T12:47:15;11.30;;;6.82;;
84638;SDS011;74869;51.924;5.712;2024-02-26T12:49:47;11.40;;;6.75;;
84638;SDS011;74869;51.924;5.712;2024-02-26T12:52:13;11.73;;;6.32;;
84638;SDS011;74869;51.924;5.712;2024-02-26T12:54:39;8.70;;;5.75;;
84638;SDS011;74869;51.924;5.712;2024-02-26T12:57:07;11.93;;;6.55;;
84638;SDS011;74869;51.924;5.712;2024-02-26T12:59:34;13.18;;;6.03;;
84638;SDS011;74869;51.924;5.712;2024-02-26T13:02:01;11.65;;;6.05;;
84638;SDS011;74869;51.924;5.712;2024-02-26T13:04:28;11.00;;;6.50;;
84638;SDS011;74869;51.924;5.712;2024-02-26T13:06:55;9.80;;;6.15;;
84638;SDS011;74869;51.924;5.712;2024-02-26T13:09:25;8.65;;;5.57;;
84638;SDS011;74869;51.924;5.712;2024-02-26T13:11:55;11.25;;;5.55;;
84638;SDS011;74869;51.924;5.712;2024-02-26T13:14:20;8.60;;;5.05;;
84638;SDS011;74869;51.924;5.712;2024-02-26T13:16:54;9.82;;;5.88;;
84638;SDS011;74869;51.924;5.712;2024-02-26T13:19:20;12.60;;;6.75;;
84638;SDS011;74869;51.924;5.712;2024-02-26T13:21:46;9.77;;;5.50;;
84638;SDS011;74869;51.924;5.712;2024-02-26T13:24:12;12.05;;;5.90;;
84638;SDS011;74869;51.924;5.712;2024-02-26T13:26:38;10.35;;;6.43;;
84638;SDS011;74869;51.924;5.712;2024-02-26T13:29:04;11.27;;;6.28;;
84638;SDS011;74869;51.924;5.712;2024-02-26T13:31:30;12.07;;;6.70;;
84638;SDS011;74869;51.924;5.712;2024-02-26T13:33:55;12.35;;;6.28;;
84638;SDS011;74869;51.924;5.712;2024-02-26T13:36:21;11.50;;;6.32;;
84638;SDS011;74869;51.924;5.712;2024-02-26T13:38:51;10.35;;;6.10;;
84638;SDS011;74869;51.924;5.712;2024-02-26T13:41:18;10.48;;;6.35;;
84638;SDS011;74869;51.924;5.712;2024-02-26T13:43:43;14.30;;;6.95;;
84638;SDS011;74869;51.924;5.712;2024-02-26T13:46:09;10.73;;;6.18;;
84638;SDS011;74869;51.924;5.712;2024-02-26T13:48:37;11.68;;;6.97;;
84638;SDS011;74869;51.924;5.712;2024-02-26T13:51:03;11.50;;;7.33;;
84638;SDS011;74869;51.924;5.712;2024-02-26T13:53:29;11.23;;;6.90;;
84638;SDS011;74869;51.924;5.712;2024-02-26T13:55:54;12.73;;;7.43;;
84638;SDS011;74869;51.924;5.712;2024-02-26T13:58:20;11.43;;;6.03;;
84638;SDS011;74869;51.924;5.712;2024-02-26T14:00:48;12.75;;;7.47;;
84638;SDS011;74869;51.924;5.712;2024-02-26T14:03:14;11.07;;;7.32;;
84638;SDS011;74869;51.924;5.712;2024-02-26T14:05:41;12.43;;;6.72;;
84638;SDS011;74869;51.924;5.712;2024-02-26T14:08:06;12.63;;;6.63;;
84638;SDS011;74869;51.924;5.712;2024-02-26T14:10:31;11.48;;;6.78;;
84638;SDS011;74869;51.924;5.712;2024-02-26T14:12:57;11.27;;;6.13;;
84638;SDS011;74869;51.924;5.712;2024-02-26T14:15:24;11.13;;;6.18;;
84638;SDS011;74869;51.924;5.712;2024-02-26T14:17:50;11.95;;;6.20;;
84638;SDS011;74869;51.924;5.712;2024-02-26T14:22:45;11.55;;;6.70;;
84638;SDS011;74869;51.924;5.712;2024-02-26T14:25:10;12.43;;;6.80;;
84638;SDS011;74869;51.924;5.712;2024-02-26T14:27:35;12.68;;;6.93;;
84638;SDS011;74869;51.924;5.712;2024-02-26T14:30:01;9.85;;;6.07;;
84638;SDS011;74869;51.924;5.712;2024-02-26T14:32:27;12.18;;;7.40;;
84638;SDS011;74869;51.924;5.712;2024-02-26T14:34:52;10.80;;;6.25;;
84638;SDS011;74869;51.924;5.712;2024-02-26T14:37:18;10.50;;;6.55;;